Flight Track Log - Related Links

Times and Time Zones

All times are in EDT time to prevent confusion due to time zone crossing. See the CHH7968 flight status page for this flight to view local times or setup timezone preferences in your user account.

Time Position Orientation Groundspeed Altitude Reporting Facility
EDT Latitude Longitude Course Direction KTS MPH feet Rate Location/Type
Sat 04:29:00 AM 51.9037 104.8710 141° Southeast  Level Estimated
Sat 04:30:00 AM 51.8123 104.9903 141° Southeast  Level Estimated
Sat 04:31:00 AM 51.7208 105.1091 141° Southeast  Level Estimated
Sat 04:32:00 AM 51.6292 105.2274 141° Southeast  Level Estimated
Sat 04:33:00 AM 51.5375 105.3453 141° Southeast  Level Estimated
Sat 04:34:00 AM 51.4456 105.4626 141° Southeast  Level Estimated
Sat 04:35:00 AM 51.3536 105.5795 142° Southeast  Level Estimated
Sat 04:36:00 AM 51.2615 105.6960 142° Southeast  Level Estimated
Sat 04:37:00 AM 51.1693 105.8119 142° Southeast  Level Estimated
Sat 04:38:00 AM 51.0770 105.9274 142° Southeast  Level Estimated
Sat 04:39:00 AM 50.9846 106.0425 142° Southeast  Level Estimated
Sat 04:40:00 AM 50.8920 106.1571 142° Southeast  Level Estimated
Sat 04:41:00 AM 50.7994 106.2712 142° Southeast  Level Estimated
Sat 04:42:00 AM 50.7066 106.3849 142° Southeast  Level Estimated
Sat 04:43:00 AM 50.6137 106.4981 142° Southeast  Level Estimated
Sat 04:44:00 AM 50.5207 106.6109 142° Southeast  Level Estimated
Sat 04:45:00 AM 50.4276 106.7232 142° Southeast  Level Estimated
Sat 04:46:00 AM 50.3344 106.8351 143° Southeast  Level Estimated
Sat 04:47:00 AM 50.2411 106.9466 143° Southeast  Level Estimated
Sat 04:48:00 AM 50.1477 107.0576 143° Southeast  Level Estimated
Sat 04:49:00 AM 50.0542 107.1682 143° Southeast  Level Estimated
Sat 04:50:00 AM 49.9605 107.2784 143° Southeast  Level Estimated
Sat 04:51:00 AM 49.8668 107.3881 143° Southeast  Level Estimated
Sat 04:52:00 AM 49.7730 107.4974 143° Southeast  Level Estimated
Sat 04:53:00 AM 49.6790 107.6063 143° Southeast  Level Estimated
Sat 04:54:00 AM 49.5850 107.7147 143° Southeast  Level Estimated
Sat 04:55:00 AM 49.4908 107.8228 143° Southeast  Level Estimated
Sat 04:56:00 AM 49.3966 107.9304 143° Southeast  Level Estimated
Sat 04:57:00 AM 49.3023 108.0376 143° Southeast  Level Estimated
Sat 04:58:00 AM 49.2078 108.1444 144° Southeast  Level Estimated
Sat 04:59:00 AM 49.1133 108.2508 144° Southeast  Level Estimated
Sat 05:00:00 AM 49.0187 108.3568 144° Southeast  Level Estimated
Sat 05:01:00 AM 48.9239 108.4624 144° Southeast  Level Estimated
Sat 05:02:00 AM 48.8291 108.5676 144° Southeast  Level Estimated
Sat 05:03:00 AM 48.7342 108.6724 144° Southeast  Level Estimated
Sat 05:04:00 AM 48.6392 108.7768 144° Southeast  Level Estimated
Sat 05:05:00 AM 48.5440 108.8808 144° Southeast  Level Estimated
Sat 05:06:00 AM 48.4488 108.9845 144° Southeast  Level Estimated
Sat 05:07:00 AM 48.3535 109.0877 144° Southeast  Level Estimated
Sat 05:08:00 AM 48.2582 109.1905 144° Southeast  Level Estimated
Sat 05:09:00 AM 48.1627 109.2930 144° Southeast  Level Estimated
Sat 05:10:00 AM 48.0671 109.3951 144° Southeast  Level Estimated
Sat 05:11:00 AM 47.9715 109.4968 145° Southeast  Level Estimated
Sat 05:12:00 AM 47.8757 109.5981 145° Southeast  Level Estimated
Sat 05:13:00 AM 47.7799 109.6990 145° Southeast  Level Estimated
Sat 05:14:00 AM 47.6839 109.7996 145° Southeast  Level Estimated
Sat 05:15:00 AM 47.5879 109.8998 145° Southeast  Level Estimated
Sat 05:16:00 AM 47.4918 109.9997 145° Southeast  Level Estimated
Sat 05:17:00 AM 47.3956 110.0991 145° Southeast  Level Estimated
Sat 05:18:00 AM 47.2994 110.1983 145° Southeast  Level Estimated
Sat 05:19:00 AM 47.2030 110.2970 145° Southeast  Level Estimated
Sat 05:20:00 AM 47.1065 110.3954 145° Southeast  Level Estimated
Sat 05:21:00 AM 47.0100 110.4934 145° Southeast  Level Estimated
Sat 05:22:00 AM 46.9134 110.5911 145° Southeast  Level Estimated
Sat 05:23:00 AM 46.8167 110.6885 145° Southeast  Level Estimated
Sat 05:24:00 AM 46.7199 110.7855 145° Southeast  Level Estimated
Sat 05:25:00 AM 46.6231 110.8821 146° Southeast  Level Estimated
Sat 05:26:00 AM 46.5261 110.9784 146° Southeast  Level Estimated
Sat 05:27:00 AM 46.4291 111.0743 146° Southeast  Level Estimated
Sat 05:28:00 AM 46.3320 111.1700 146° Southeast  Level Estimated
Sat 05:29:00 AM 46.2348 111.2652 146° Southeast  Level Estimated
Sat 05:30:00 AM 46.1376 111.3602 146° Southeast  Level Estimated
Sat 05:31:00 AM 46.0402 111.4548 146° Southeast  Level Estimated
Sat 05:32:00 AM 45.9428 111.5490 146° Southeast  Level Estimated
Sat 05:33:00 AM 45.8453 111.6429 146° Southeast  Level Estimated
Sat 05:34:00 AM 45.7478 111.7365 146° Southeast  Level Estimated
Sat 05:35:00 AM 45.6501 111.8298 146° Southeast  Level Estimated
Sat 05:36:00 AM 45.5524 111.9228 146° Southeast  Level Estimated
Sat 05:37:00 AM 45.4546 112.0154 146° Southeast  Level Estimated
Sat 05:38:00 AM 45.3567 112.1077 146° Southeast  Level Estimated
Sat 05:39:00 AM 45.2588 112.1997 147° Southeast  Level Estimated
Sat 05:40:00 AM 45.1608 112.2914 147° Southeast  Level Estimated
Sat 05:41:00 AM 45.0627 112.3827 147° Southeast  Level Estimated
Sat 05:42:00 AM 44.9645 112.4738 147° Southeast  Level Estimated
Sat 05:43:00 AM 44.8663 112.5645 147° Southeast  Level Estimated
Sat 05:44:00 AM 44.7680 112.6549 147° Southeast  Level Estimated
Sat 05:45:00 AM 44.6696 112.7451 147° Southeast  Level Estimated
Sat 05:46:00 AM 44.5712 112.8349 147° Southeast  Level Estimated
Sat 05:47:00 AM 44.4726 112.9244 147° Southeast  Level Estimated
Sat 05:48:00 AM 44.3740 113.0136 147° Southeast  Level Estimated
Sat 05:49:00 AM 44.2754 113.1025 147° Southeast  Level Estimated
Sat 05:50:00 AM 44.1767 113.1911 147° Southeast  Level Estimated
Sat 05:51:00 AM 44.0779 113.2794 147° Southeast  Level Estimated
Sat 05:52:00 AM 43.9790 113.3674 147° Southeast  Level Estimated
Sat 05:53:00 AM 43.8801 113.4552 147° Southeast  Level Estimated
Sat 05:54:00 AM 43.7811 113.5426 147° Southeast  Level Estimated
Sat 05:55:00 AM 43.6820 113.6298 148° Southeast  Level Estimated
Sat 05:56:00 AM 43.5829 113.7166 148° Southeast  Level Estimated
Sat 05:57:00 AM 43.4837 113.8032 148° Southeast  Level Estimated
Sat 05:58:00 AM 43.3844 113.8895 148° Southeast  Level Estimated
Sat 05:59:00 AM 43.2851 113.9755 148° Southeast  Level Estimated
Sat 06:00:00 AM 43.1857 114.0612 148° Southeast  Level Estimated
Sat 06:01:00 AM 43.0863 114.1467 148° Southeast  Level Estimated
Sat 06:02:00 AM 42.9868 114.2318 148° Southeast  Level Estimated
Sat 06:03:00 AM 42.8872 114.3167 148° Southeast  Level Estimated
Sat 06:04:00 AM 42.7875 114.4013 148° Southeast  Level Estimated
Sat 06:05:00 AM 42.6878 114.4857 148° Southeast  Level Estimated
Sat 06:06:00 AM 42.5881 114.5698 148° Southeast  Level Estimated
Sat 06:07:00 AM 42.4882 114.6536 148° Southeast  Level Estimated
Sat 06:08:00 AM 42.3884 114.7371 148° Southeast  Level Estimated
Sat 06:09:00 AM 42.2884 114.8204 148° Southeast  Level Estimated
Sat 06:10:00 AM 42.1884 114.9034 148° Southeast  Level Estimated
Sat 06:11:00 AM 42.0883 114.9862 148° Southeast  Level Estimated
Sat 06:12:00 AM 41.9882 115.0686 149° Southeast  Level Estimated
Sat 06:13:00 AM 41.8880 115.1509 149° Southeast  Level Estimated
Sat 06:14:00 AM 41.7878 115.2328 149° Southeast  Level Estimated
Sat 06:15:00 AM 41.6875 115.3146 149° Southeast  Level Estimated
Sat 06:16:00 AM 41.5871 115.3960 149° Southeast  Level Estimated
Sat 06:17:00 AM 41.4867 115.4772 149° Southeast  Level Estimated
Sat 06:18:00 AM 41.3862 115.5582 149° Southeast  Level Estimated
Sat 06:19:00 AM 41.2857 115.6389 149° Southeast  Level Estimated
Sat 06:20:00 AM 41.1851 115.7194 149° Southeast  Level Estimated
Sat 06:21:00 AM 41.0844 115.7996 149° Southeast  Level Estimated
Sat 06:22:00 AM 40.9837 115.8795 149° Southeast  Level Estimated
Sat 06:23:00 AM 40.8830 115.9593 149° Southeast  Level Estimated
Sat 06:24:00 AM 40.7822 116.0387 149° Southeast  Level Estimated
Sat 06:25:00 AM 40.6813 116.1180 149° Southeast  Level Estimated
Sat 06:26:00 AM 40.5804 116.1970 149° Southeast  Level Estimated
Sat 06:27:00 AM 40.4794 116.2757 149° Southeast  Level Estimated
Sat 06:28:00 AM 40.3784 116.3543 149° Southeast  Level Estimated
Sat 06:29:00 AM 40.2773 116.4326 149° Southeast  Level Estimated
Sat 06:30:00 AM 40.1762 116.5106 149° Southeast  Level Estimated
Sat 06:31:00 AM 40.0801 116.5846 150° Southeast  Level Estimated
Sat 06:32:00 AM 40.0801 116.5846 288° West  Level Estimated
Sat 06:33:00 AM 40.0801 116.5846 288° West  Level Estimated
Sat 06:34:00 AM 40.0801 116.5846 288° West  Level Estimated
Sat 06:35:00 AM 40.0801 116.5846 288° West  Level Estimated
Sat 06:36:00 AM 40.0801 116.5846 288° West  Level Estimated
Sat 06:37:00 AM 40.0801 116.5846 288° West  Level Estimated
Sat 06:38:00 AM 40.0801 116.5846 288° West  Level Estimated
Sat 06:39:00 AM 40.0801 116.5846 288° West  Level Estimated
Sat 06:40:00 AM 40.0801 116.5846 288° West  Level Estimated
Sat 06:41:00 AM 40.0801 116.5846 288° West  Level Estimated
Sat 06:42:00 AM 40.0801 116.5846 288° West  Level Estimated
Sat 06:43:00 AM 40.0801 116.5846 288° West  Level Estimated
Sat 06:44:00 AM 40.0801 116.5846 288° West  Level Estimated
Sat 06:45:00 AM 40.0801 116.5846 288° West  Level Estimated
Sat 06:46:00 AM 40.0801 116.5846 288° West  Level Estimated
Sat 06:47:00 AM 40.0801 116.5846 288° West  Level Estimated

Login

Don't have an account? Register now (free) for customized features, flight alerts, and more!